Time;durP1;ratioP1;P1;durP2;ratioP2;P2;SDS_P1;SDS_P2;PMS_P1;PMS_P2;Temp;Humidity;BMP_temperature;BMP_pressure;BME280_temperature;BME280_humidity;BME280_pressure;Samples;Min_cycle;Max_cycle;Signal;HPM_P1;HPM_P2
2021/11/21 00:01:04;;;;;;;20.17;14.00;;;7.30;99.90;;;;;;5055723;28;20238;-72
2021/11/21 00:03:31;;;;;;;20.05;14.18;;;7.30;99.90;;;;;;5055538;28;20721;-72
2021/11/21 00:05:58;;;;;;;20.10;14.25;;;7.30;99.90;;;;;;5055453;28;20231;-72
2021/11/21 00:08:25;;;;;;;21.30;15.40;;;7.30;99.90;;;;;;5055444;28;20258;-72
2021/11/21 00:10:52;;;;;;;17.10;12.95;;;7.30;99.90;;;;;;5055853;28;20239;-73
2021/11/21 00:13:19;;;;;;;18.63;13.52;;;7.30;99.90;;;;;;5055390;28;20286;-73
2021/11/21 00:15:47;;;;;;;19.88;14.43;;;7.20;99.90;;;;;;5054429;28;20306;-73
2021/11/21 00:18:14;;;;;;;21.15;14.45;;;7.10;99.90;;;;;;5054909;28;20644;-73
2021/11/21 00:20:43;;;;;;;22.10;15.63;;;7.00;99.90;;;;;;5055686;28;20307;-72
2021/11/21 00:23:09;;;;;;;19.88;14.95;;;6.90;99.90;;;;;;5054473;28;20231;-72
2021/11/21 00:25:37;;;;;;;19.00;12.93;;;7.00;99.90;;;;;;5054300;28;20314;-72
2021/11/21 00:28:05;;;;;;;19.20;13.98;;;7.00;99.90;;;;;;5054143;28;20255;-72
2021/11/21 00:30:32;;;;;;;18.45;12.82;;;7.10;99.90;;;;;;5054417;28;20257;-72
2021/11/21 00:33:00;;;;;;;17.08;12.50;;;7.10;99.90;;;;;;5054265;28;20685;-72
2021/11/21 00:35:27;;;;;;;19.27;13.55;;;7.10;99.90;;;;;;5053946;28;20294;-72
2021/11/21 00:37:54;;;;;;;19.27;13.57;;;7.10;99.90;;;;;;5054152;28;20314;-73
2021/11/21 00:40:21;;;;;;;17.33;13.27;;;7.20;99.90;;;;;;5054279;28;20299;-73
2021/11/21 00:42:50;;;;;;;17.10;12.15;;;7.20;99.90;;;;;;5054087;28;20290;-73
2021/11/21 00:45:17;;;;;;;20.00;12.93;;;7.20;99.90;;;;;;5053805;28;20294;-72
2021/11/21 00:47:44;;;;;;;18.60;13.45;;;7.20;99.90;;;;;;5053950;28;20314;-73
2021/11/21 00:50:15;;;;;;;16.77;12.35;;;7.20;99.90;;;;;;5054279;28;20199;-72
2021/11/21 00:52:42;;;;;;;19.40;14.13;;;7.10;99.90;;;;;;5054028;28;20211;-72
2021/11/21 00:55:14;;;;;;;17.40;13.13;;;7.10;99.90;;;;;;5053527;28;20199;-71
2021/11/21 00:57:42;;;;;;;16.85;12.88;;;7.10;99.90;;;;;;5053741;28;20658;-71
2021/11/21 01:00:11;;;;;;;19.67;14.15;;;7.10;99.90;;;;;;5053987;28;20601;-72
2021/11/21 01:02:39;;;;;;;19.60;13.35;;;7.10;99.90;;;;;;5053789;28;20249;-72
2021/11/21 01:05:07;;;;;;;18.90;13.98;;;7.10;99.90;;;;;;5053145;28;20290;-72
2021/11/21 01:07:37;;;;;;;19.10;14.27;;;7.10;99.90;;;;;;5053419;28;20289;-73
2021/11/21 01:10:06;;;;;;;19.33;13.18;;;7.10;99.90;;;;;;5053736;28;20200;-72
2021/11/21 01:12:33;;;;;;;17.58;12.88;;;7.10;99.90;;;;;;5053473;28;20257;-72
2021/11/21 01:15:01;;;;;;;17.08;12.90;;;7.20;99.90;;;;;;5053730;28;20604;-72
2021/11/21 01:17:28;;;;;;;20.33;14.00;;;7.20;99.90;;;;;;5054239;28;20733;-73
2021/11/21 01:19:59;;;;;;;19.38;13.18;;;7.20;99.90;;;;;;5054305;28;20276;-72
2021/11/21 01:22:27;;;;;;;18.25;12.65;;;7.30;99.90;;;;;;5054243;28;20242;-72
2021/11/21 01:24:56;;;;;;;18.95;13.25;;;7.30;99.90;;;;;;5053661;28;20290;-72
2021/11/21 01:27:23;;;;;;;18.10;13.38;;;7.20;99.90;;;;;;5053410;28;20649;-72
2021/11/21 01:29:50;;;;;;;22.17;14.68;;;7.20;99.90;;;;;;5053171;28;20254;-72
2021/11/21 01:32:18;;;;;;;18.02;13.13;;;7.20;99.90;;;;;;5053478;28;20235;-72
2021/11/21 01:34:45;;;;;;;18.17;12.60;;;7.20;99.90;;;;;;5053184;28;20240;-72
2021/11/21 01:37:12;;;;;;;19.42;13.07;;;7.20;99.90;;;;;;5053326;28;20261;-72
2021/11/21 01:39:38;;;;;;;17.55;13.07;;;7.20;99.90;;;;;;5053434;28;20259;-72
2021/11/21 01:42:07;;;;;;;19.45;13.32;;;7.30;99.90;;;;;;5053580;28;20299;-72
2021/11/21 01:44:34;;;;;;;17.67;13.50;;;7.30;99.90;;;;;;5053201;28;20620;-73
2021/11/21 01:47:01;;;;;;;17.50;13.82;;;7.30;99.90;;;;;;5053045;28;20704;-72
2021/11/21 01:49:28;;;;;;;17.42;13.60;;;7.30;99.90;;;;;;5053303;28;20300;-72
2021/11/21 01:51:55;;;;;;;18.80;12.93;;;7.30;99.90;;;;;;5053304;28;20231;-72
2021/11/21 01:54:22;;;;;;;21.33;14.80;;;7.30;99.90;;;;;;5053158;28;20242;-73
2021/11/21 01:56:49;;;;;;;16.00;13.43;;;7.40;99.90;;;;;;5052975;28;20250;-72
2021/11/21 01:59:17;;;;;;;19.08;13.45;;;7.30;99.90;;;;;;5053211;28;20638;-72
2021/11/21 02:01:45;;;;;;;16.02;12.95;;;7.30;99.90;;;;;;5053052;28;20239;-73
2021/11/21 02:04:12;;;;;;;17.33;12.63;;;7.40;99.90;;;;;;5053139;28;20242;-72
2021/11/21 02:06:39;;;;;;;14.35;11.02;;;7.40;99.90;;;;;;5053040;28;20629;-72
2021/11/21 02:09:07;;;;;;;15.38;11.27;;;7.40;99.90;;;;;;5052805;28;20259;-72
2021/11/21 02:11:34;;;;;;;13.18;10.88;;;7.40;99.90;;;;;;5052858;28;20250;-72
2021/11/21 02:14:01;;;;;;;16.25;12.30;;;7.40;99.90;;;;;;5053017;28;20397;-72
2021/11/21 02:16:32;;;;;;;16.77;12.00;;;7.30;99.90;;;;;;5054437;28;20253;-72
2021/11/21 02:18:59;;;;;;;15.48;11.68;;;7.30;99.90;;;;;;5057142;28;20223;-72
2021/11/21 02:21:28;;;;;;;15.32;11.48;;;7.20;99.90;;;;;;5056888;28;20242;-72
2021/11/21 02:23:56;;;;;;;14.45;11.85;;;7.20;99.90;;;;;;5056683;28;20242;-72
2021/11/21 02:26:23;;;;;;;17.08;11.60;;;7.10;99.90;;;;;;5057119;28;20242;-73
2021/11/21 02:28:54;;;;;;;17.15;12.48;;;7.10;99.90;;;;;;5057136;28;20258;-72
2021/11/21 02:31:21;;;;;;;16.25;11.90;;;7.10;99.90;;;;;;5057047;28;20723;-73
2021/11/21 02:33:51;;;;;;;14.40;10.77;;;7.10;99.90;;;;;;5056728;28;20249;-71
2021/11/21 02:36:18;;;;;;;16.10;11.85;;;7.10;99.90;;;;;;5056137;28;20200;-72
2021/11/21 02:38:47;;;;;;;13.77;10.35;;;7.00;99.90;;;;;;5057144;28;20223;-72
2021/11/21 02:41:14;;;;;;;16.13;11.73;;;7.00;99.90;;;;;;5056253;28;20238;-72
2021/11/21 02:43:43;;;;;;;14.60;11.25;;;7.00;99.90;;;;;;5056138;28;20243;-72
2021/11/21 02:46:11;;;;;;;15.80;11.20;;;6.90;99.90;;;;;;5056191;28;20208;-72
2021/11/21 02:48:39;;;;;;;15.68;11.15;;;6.90;99.90;;;;;;5056452;28;20263;-73
2021/11/21 02:51:09;;;;;;;16.30;11.57;;;6.90;99.90;;;;;;5056758;28;20260;-72
2021/11/21 02:53:37;;;;;;;16.35;11.40;;;7.00;99.90;;;;;;5056619;28;20211;-72
2021/11/21 02:56:07;;;;;;;16.67;12.57;;;6.90;99.90;;;;;;5056224;28;20253;-72
2021/11/21 02:58:35;;;;;;;16.08;10.80;;;6.80;99.90;;;;;;5056275;28;20265;-71
2021/11/21 03:01:04;;;;;;;16.20;11.63;;;6.80;99.90;;;;;;5056017;28;20242;-72
2021/11/21 03:03:31;;;;;;;15.40;11.90;;;6.90;99.90;;;;;;5056227;28;20275;-72
2021/11/21 03:05:59;;;;;;;15.13;11.27;;;6.80;99.90;;;;;;5055975;28;20203;-72
2021/11/21 03:08:26;;;;;;;15.02;11.20;;;6.80;99.90;;;;;;5056278;28;20262;-72
2021/11/21 03:10:54;;;;;;;14.48;11.73;;;6.80;99.90;;;;;;5056208;28;20239;-72
2021/11/21 03:13:23;;;;;;;16.15;10.90;;;6.70;99.90;;;;;;5056536;28;20238;-72
2021/11/21 03:15:50;;;;;;;15.93;10.70;;;6.80;99.90;;;;;;5055788;28;20665;-73
2021/11/21 03:18:17;;;;;;;15.30;11.50;;;6.90;99.90;;;;;;5056029;28;20258;-73
2021/11/21 03:20:44;;;;;;;15.00;11.15;;;6.90;99.90;;;;;;5056080;28;20199;-72
2021/11/21 03:23:10;;;;;;;13.60;10.55;;;6.80;99.90;;;;;;5056249;28;20629;-72
2021/11/21 03:25:38;;;;;;;13.85;10.70;;;6.70;99.90;;;;;;5055931;28;20235;-73
2021/11/21 03:28:05;;;;;;;15.73;11.05;;;6.70;99.90;;;;;;5055269;28;20598;-72
2021/11/21 03:30:33;;;;;;;15.18;11.10;;;6.60;99.90;;;;;;5055892;28;20261;-73
2021/11/21 03:33:00;;;;;;;16.38;11.80;;;6.60;99.90;;;;;;5055625;28;20735;-72
2021/11/21 03:35:27;;;;;;;15.40;10.93;;;6.70;99.90;;;;;;5055443;28;20242;-72
2021/11/21 03:37:54;;;;;;;13.63;10.15;;;6.60;99.90;;;;;;5055541;28;20235;-73
2021/11/21 03:40:21;;;;;;;14.43;10.77;;;6.50;99.90;;;;;;5055483;28;20402;-72
2021/11/21 03:42:48;;;;;;;14.32;11.15;;;6.60;99.90;;;;;;5055662;28;20235;-73
2021/11/21 03:45:16;;;;;;;15.13;10.82;;;6.60;99.90;;;;;;5055526;28;20238;-72
2021/11/21 03:47:45;;;;;;;17.20;11.48;;;6.60;99.90;;;;;;5055309;28;20235;-72
2021/11/21 03:50:12;;;;;;;15.18;11.02;;;6.60;99.90;;;;;;5055751;28;20253;-72
2021/11/21 03:52:41;;;;;;;17.25;12.07;;;6.60;99.90;;;;;;5055271;28;20211;-72
2021/11/21 03:55:09;;;;;;;14.95;10.60;;;6.70;99.90;;;;;;5055303;28;20208;-72
2021/11/21 03:57:36;;;;;;;15.82;11.70;;;6.60;99.90;;;;;;5055457;28;20620;-72
2021/11/21 04:00:05;;;;;;;16.98;11.27;;;6.50;99.90;;;;;;5055425;28;20231;-72
2021/11/21 04:02:32;;;;;;;14.60;10.50;;;6.50;99.90;;;;;;5055385;28;20239;-72
2021/11/21 04:05:00;;;;;;;17.65;11.23;;;6.40;99.90;;;;;;5055299;28;20235;-73
2021/11/21 04:07:28;;;;;;;16.08;10.80;;;6.40;99.90;;;;;;5055290;28;20204;-72
2021/11/21 04:09:55;;;;;;;15.77;10.60;;;6.40;99.90;;;;;;5055059;28;20231;-72
2021/11/21 04:12:22;;;;;;;16.58;11.07;;;6.50;99.90;;;;;;5055254;28;20230;-72
2021/11/21 04:14:49;;;;;;;14.88;10.55;;;6.50;99.90;;;;;;5054886;28;20234;-73
2021/11/21 04:17:15;;;;;;;15.55;10.55;;;6.50;99.90;;;;;;5055055;28;20251;-72
2021/11/21 04:19:43;;;;;;;14.48;10.23;;;6.40;99.90;;;;;;5055116;28;20254;-72
2021/11/21 04:22:11;;;;;;;14.50;10.77;;;6.40;99.90;;;;;;5055110;28;20211;-72
2021/11/21 04:24:38;;;;;;;15.07;11.40;;;6.40;99.90;;;;;;5054547;28;20258;-72
2021/11/21 04:27:05;;;;;;;13.50;9.60;;;6.40;99.90;;;;;;5055000;28;20204;-73
2021/11/21 04:29:34;;;;;;;14.73;10.70;;;6.40;99.90;;;;;;5054780;28;20263;-72
2021/11/21 04:32:01;;;;;;;14.77;11.02;;;6.40;99.90;;;;;;5055149;28;20637;-73
2021/11/21 04:34:28;;;;;;;13.73;9.50;;;6.30;99.90;;;;;;5054725;28;20235;-72
2021/11/21 04:36:58;;;;;;;13.65;9.60;;;6.30;99.90;;;;;;5054347;28;20239;-72
2021/11/21 04:39:26;;;;;;;13.40;9.75;;;6.30;99.90;;;;;;5054034;28;20220;-72
2021/11/21 04:41:53;;;;;;;14.73;10.80;;;6.40;99.90;;;;;;5054699;28;20199;-72
2021/11/21 04:44:21;;;;;;;13.73;9.80;;;6.40;99.90;;;;;;5054915;28;20203;-72
2021/11/21 04:46:48;;;;;;;13.93;9.90;;;6.40;99.90;;;;;;5054533;28;20268;-72
2021/11/21 04:49:15;;;;;;;13.32;9.82;;;6.40;99.90;;;;;;5054698;28;20259;-72
2021/11/21 04:51:42;;;;;;;13.95;8.90;;;6.40;99.90;;;;;;5054714;28;20246;-72
2021/11/21 04:54:14;;;;;;;13.05;9.32;;;6.40;99.90;;;;;;5054863;28;20206;-73
2021/11/21 04:56:42;;;;;;;14.02;9.60;;;6.40;99.90;;;;;;5054347;28;20220;-72
2021/11/21 04:59:09;;;;;;;13.32;9.57;;;6.40;99.90;;;;;;5054330;28;20235;-73
2021/11/21 05:01:36;;;;;;;12.65;8.80;;;6.40;99.90;;;;;;5054635;28;20261;-72
2021/11/21 05:04:03;;;;;;;12.55;8.35;;;6.40;99.90;;;;;;5054613;28;20245;-72
2021/11/21 05:06:30;;;;;;;16.25;11.40;;;6.30;99.90;;;;;;5054413;28;20242;-72
2021/11/21 05:08:57;;;;;;;14.35;9.82;;;6.30;99.90;;;;;;5054247;28;20735;-72
2021/11/21 05:11:24;;;;;;;13.05;9.35;;;6.30;99.90;;;;;;5054336;28;20239;-72
2021/11/21 05:13:53;;;;;;;14.43;10.82;;;6.30;99.90;;;;;;5054516;28;20199;-72
2021/11/21 05:16:20;;;;;;;15.15;9.55;;;6.40;99.90;;;;;;5053996;28;20265;-72
2021/11/21 05:18:47;;;;;;;13.70;9.70;;;6.40;99.90;;;;;;5054040;28;20251;-71
2021/11/21 05:21:14;;;;;;;14.65;9.32;;;6.30;99.90;;;;;;5053416;28;20226;-72
2021/11/21 05:23:41;;;;;;;12.38;8.52;;;6.20;99.90;;;;;;5054047;28;20250;-71
2021/11/21 05:26:08;;;;;;;12.73;9.35;;;6.30;99.90;;;;;;5053766;28;20235;-72
2021/11/21 05:28:34;;;;;;;12.70;9.10;;;6.30;99.90;;;;;;5053708;28;20262;-72
2021/11/21 05:31:03;;;;;;;13.40;8.85;;;6.30;99.90;;;;;;5053918;28;20234;-72
2021/11/21 05:33:30;;;;;;;12.52;8.65;;;6.20;99.90;;;;;;5053906;28;20238;-72
2021/11/21 05:35:57;;;;;;;11.60;8.73;;;6.30;99.90;;;;;;5053560;28;20618;-72
2021/11/21 05:38:24;;;;;;;10.48;8.63;;;6.20;99.90;;;;;;5053914;28;20610;-72
2021/11/21 05:40:51;;;;;;;16.20;11.98;;;6.30;99.90;;;;;;5053780;28;20616;-72
2021/11/21 05:43:18;;;;;;;16.58;9.43;;;6.20;99.90;;;;;;5053810;28;20576;-71
2021/11/21 05:45:46;;;;;;;11.55;9.30;;;6.30;99.90;;;;;;5053589;28;20245;-71
2021/11/21 05:48:14;;;;;;;10.57;8.00;;;6.30;99.90;;;;;;5053815;28;20250;-72
2021/11/21 05:50:41;;;;;;;10.70;8.43;;;6.30;99.90;;;;;;5056453;28;20614;-72
2021/11/21 05:53:08;;;;;;;10.65;8.07;;;6.30;99.90;;;;;;5057669;28;20591;-71
2021/11/21 05:55:35;;;;;;;10.65;8.02;;;6.30;99.90;;;;;;5057274;28;20251;-72
2021/11/21 05:58:02;;;;;;;10.90;7.97;;;6.10;99.90;;;;;;5057858;28;20227;-72
2021/11/21 06:00:29;;;;;;;10.65;8.45;;;5.90;99.90;;;;;;5057405;28;20227;-72
2021/11/21 06:02:57;;;;;;;9.25;7.22;;;5.80;99.90;;;;;;5057343;28;20250;-72
2021/11/21 06:05:25;;;;;;;9.70;7.32;;;5.90;99.90;;;;;;5057335;28;20211;-71
2021/11/21 06:07:52;;;;;;;11.38;8.02;;;5.90;99.90;;;;;;5057491;28;20238;-71
2021/11/21 06:10:19;;;;;;;10.93;8.20;;;6.00;99.90;;;;;;5057098;28;20259;-71
2021/11/21 06:12:46;;;;;;;11.50;8.48;;;6.00;99.90;;;;;;5057214;28;20207;-72
2021/11/21 06:15:13;;;;;;;11.30;8.00;;;6.00;99.90;;;;;;5057135;28;20562;-72
2021/11/21 06:17:42;;;;;;;11.10;8.65;;;6.00;99.90;;;;;;5056846;28;20246;-71
2021/11/21 06:20:10;;;;;;;10.48;7.90;;;6.00;99.90;;;;;;5057450;28;20553;-72
2021/11/21 06:22:39;;;;;;;10.35;7.63;;;6.10;99.90;;;;;;5057314;28;20238;-71
2021/11/21 06:25:07;;;;;;;10.13;7.40;;;6.20;99.90;;;;;;5057137;28;20239;-72
2021/11/21 06:27:34;;;;;;;10.10;7.20;;;6.20;99.90;;;;;;5057161;28;20243;-72
2021/11/21 06:30:01;;;;;;;10.63;8.38;;;6.20;99.90;;;;;;5057222;28;20259;-72
2021/11/21 06:32:28;;;;;;;10.75;7.85;;;6.30;99.90;;;;;;5057181;28;20242;-72
2021/11/21 06:34:55;;;;;;;10.70;7.50;;;6.30;99.90;;;;;;5057146;28;20208;-72
2021/11/21 06:37:22;;;;;;;10.60;7.60;;;6.30;99.90;;;;;;5056996;28;20246;-72
2021/11/21 06:39:50;;;;;;;10.30;7.30;;;6.30;99.90;;;;;;5056930;28;20273;-72
2021/11/21 06:42:17;;;;;;;9.20;6.97;;;6.30;99.90;;;;;;5056905;28;20242;-73
2021/11/21 06:44:44;;;;;;;12.65;7.90;;;6.30;99.90;;;;;;5056476;28;20211;-72
2021/11/21 06:47:13;;;;;;;11.30;7.40;;;6.20;99.90;;;;;;5056789;28;20269;-71
2021/11/21 06:49:40;;;;;;;12.15;7.63;;;6.20;99.90;;;;;;5056507;28;20227;-71
2021/11/21 06:52:08;;;;;;;12.80;8.77;;;6.10;99.90;;;;;;5056328;28;20602;-72
2021/11/21 06:54:35;;;;;;;14.52;10.20;;;6.10;99.90;;;;;;5056060;28;20210;-72
2021/11/21 06:57:03;;;;;;;13.57;9.65;;;6.20;99.90;;;;;;5055978;28;20235;-72
2021/11/21 06:59:30;;;;;;;13.95;10.10;;;6.30;99.90;;;;;;5055889;28;20251;-72
2021/11/21 07:01:57;;;;;;;13.30;9.80;;;6.20;99.90;;;;;;5055125;28;20238;-72
2021/11/21 07:04:24;;;;;;;14.45;10.80;;;6.30;99.90;;;;;;5055746;28;20281;-72
2021/11/21 07:06:51;;;;;;;16.73;11.63;;;6.20;99.90;;;;;;5056086;28;20337;-72
2021/11/21 07:09:19;;;;;;;15.80;11.55;;;6.10;99.90;;;;;;5055627;28;20266;-71
2021/11/21 07:11:48;;;;;;;17.40;10.43;;;6.10;99.90;;;;;;5055946;28;20242;-72
2021/11/21 07:14:17;;;;;;;17.83;11.70;;;6.10;99.90;;;;;;5056027;28;20283;-72
2021/11/21 07:16:46;;;;;;;15.38;10.80;;;6.10;99.90;;;;;;5055580;28;20243;-72
2021/11/21 07:19:13;;;;;;;13.77;10.02;;;6.10;99.90;;;;;;5055641;28;20216;-72
2021/11/21 07:21:40;;;;;;;15.10;9.90;;;6.10;99.90;;;;;;5055964;28;20242;-72
2021/11/21 07:24:07;;;;;;;12.98;9.43;;;6.10;99.90;;;;;;5055544;28;20249;-73
2021/11/21 07:26:34;;;;;;;13.02;10.27;;;6.10;99.90;;;;;;5055231;28;20708;-72
2021/11/21 07:29:01;;;;;;;12.77;8.77;;;6.20;99.90;;;;;;5055758;28;20263;-72
2021/11/21 07:31:30;;;;;;;15.10;10.68;;;6.30;99.90;;;;;;5055819;28;20239;-72
2021/11/21 07:33:56;;;;;;;11.48;9.15;;;6.40;99.90;;;;;;5056090;28;20239;-72
2021/11/21 07:36:23;;;;;;;12.65;9.20;;;6.30;99.90;;;;;;5055587;28;20255;-71
2021/11/21 07:38:51;;;;;;;15.05;9.95;;;6.40;99.90;;;;;;5055640;28;20262;-72
2021/11/21 07:41:18;;;;;;;14.32;9.40;;;6.40;99.90;;;;;;5055888;28;20242;-72
2021/11/21 07:43:45;;;;;;;12.18;9.48;;;6.30;99.90;;;;;;5055607;28;20235;-72
2021/11/21 07:46:12;;;;;;;26.45;17.42;;;6.20;99.90;;;;;;5055671;28;20235;-72
2021/11/21 07:48:40;;;;;;;14.73;10.20;;;6.30;99.90;;;;;;5055573;28;20266;-73
2021/11/21 07:51:07;;;;;;;15.10;9.80;;;6.30;99.90;;;;;;5055611;28;20274;-72
2021/11/21 07:53:34;;;;;;;15.40;9.90;;;6.40;99.90;;;;;;5055713;28;20257;-72
2021/11/21 07:56:01;;;;;;;15.07;9.80;;;6.30;99.90;;;;;;5055266;28;20223;-71
2021/11/21 07:58:30;;;;;;;17.23;10.15;;;6.30;99.90;;;;;;5055001;28;20614;-72
2021/11/21 08:00:57;;;;;;;15.10;10.20;;;6.10;99.90;;;;;;5055319;28;20199;-72
2021/11/21 08:03:24;;;;;;;15.13;9.85;;;6.20;99.90;;;;;;5055324;28;20234;-72
2021/11/21 08:05:52;;;;;;;16.25;11.75;;;6.30;99.90;;;;;;5055385;28;20306;-72
2021/11/21 08:08:19;;;;;;;14.90;10.80;;;6.30;99.90;;;;;;5054965;28;20259;-72
2021/11/21 08:10:46;;;;;;;18.15;12.18;;;6.40;99.90;;;;;;5055061;28;20621;-72
2021/11/21 08:13:13;;;;;;;19.48;13.65;;;6.30;99.90;;;;;;5054682;28;20235;-71
2021/11/21 08:15:40;;;;;;;16.98;12.48;;;6.10;99.90;;;;;;5054391;28;20238;-72
2021/11/21 08:18:07;;;;;;;20.90;13.80;;;5.80;99.90;;;;;;5054735;28;20562;-71
2021/11/21 08:20:34;;;;;;;21.88;14.50;;;5.70;99.90;;;;;;5054487;28;20258;-72
2021/11/21 08:23:02;;;;;;;18.38;13.10;;;5.80;99.90;;;;;;5054870;28;20239;-72
2021/11/21 08:25:30;;;;;;;17.35;13.38;;;6.00;99.90;;;;;;5054777;28;20631;-72
2021/11/21 08:27:56;;;;;;;25.65;14.77;;;6.00;99.90;;;;;;5054840;28;20203;-72
2021/11/21 08:30:24;;;;;;;18.92;14.05;;;6.10;99.90;;;;;;5054703;28;20250;-72
2021/11/21 08:32:51;;;;;;;19.58;13.70;;;6.10;99.90;;;;;;5055217;28;20329;-72
2021/11/21 08:35:18;;;;;;;20.25;13.43;;;6.10;99.90;;;;;;5054270;28;20235;-71
2021/11/21 08:37:45;;;;;;;20.60;14.05;;;6.00;99.90;;;;;;5054330;28;20665;-72
2021/11/21 08:40:14;;;;;;;19.35;13.13;;;6.20;99.90;;;;;;5055167;28;20227;-72
2021/11/21 08:42:41;;;;;;;19.40;14.00;;;6.20;99.90;;;;;;5054708;28;20670;-72
2021/11/21 08:45:09;;;;;;;19.48;12.82;;;6.30;99.90;;;;;;5054535;28;20246;-72
2021/11/21 08:47:36;;;;;;;20.88;13.52;;;6.40;99.90;;;;;;5054256;28;20207;-71
2021/11/21 08:50:05;;;;;;;16.52;12.07;;;6.40;99.90;;;;;;5054655;28;20615;-72
2021/11/21 08:52:31;;;;;;;19.58;13.10;;;6.40;99.90;;;;;;5054148;28;20214;-72
2021/11/21 08:54:59;;;;;;;22.27;14.30;;;6.40;99.90;;;;;;5053985;28;20262;-72
2021/11/21 08:57:27;;;;;;;21.52;13.95;;;6.30;99.90;;;;;;5053957;28;20238;-72
2021/11/21 08:59:54;;;;;;;21.70;14.52;;;6.30;99.90;;;;;;5054060;28;20265;-72
2021/11/21 09:02:21;;;;;;;23.17;15.48;;;6.20;99.90;;;;;;5053956;28;20250;-72
2021/11/21 09:04:48;;;;;;;24.40;14.82;;;6.20;99.90;;;;;;5054054;28;20235;-72
2021/11/21 09:07:15;;;;;;;21.60;14.35;;;6.20;99.90;;;;;;5054026;28;20574;-71
2021/11/21 09:09:42;;;;;;;23.58;15.18;;;6.10;99.90;;;;;;5053775;28;20259;-72
2021/11/21 09:12:10;;;;;;;26.38;15.70;;;6.00;99.90;;;;;;5053702;28;20235;-72
2021/11/21 09:14:38;;;;;;;21.42;13.63;;;5.90;99.90;;;;;;5053548;28;20239;-72
2021/11/21 09:17:05;;;;;;;24.65;14.07;;;5.80;99.90;;;;;;5053426;28;20247;-72
2021/11/21 09:19:32;;;;;;;19.63;12.23;;;5.90;99.90;;;;;;5053368;28;20262;-71
2021/11/21 09:21:59;;;;;;;19.90;13.20;;;6.00;99.90;;;;;;5053654;28;20262;-72
2021/11/21 09:24:26;;;;;;;18.75;12.50;;;6.10;99.90;;;;;;5052936;28;20246;-71
2021/11/21 09:26:53;;;;;;;18.05;11.65;;;6.00;99.90;;;;;;5053592;28;20586;-72
2021/11/21 09:29:20;;;;;;;18.50;12.02;;;6.10;99.90;;;;;;5053182;28;20261;-72
2021/11/21 09:31:48;;;;;;;17.05;10.75;;;6.20;99.90;;;;;;5053455;28;20677;-72
2021/11/21 09:34:15;;;;;;;16.33;11.13;;;6.20;99.90;;;;;;5053406;28;20211;-72
2021/11/21 09:36:42;;;;;;;17.90;11.60;;;6.20;99.90;;;;;;5053325;28;20245;-72
2021/11/21 09:39:10;;;;;;;17.60;11.57;;;6.00;99.90;;;;;;5053460;28;20582;-72
2021/11/21 09:41:37;;;;;;;15.68;10.98;;;6.00;99.90;;;;;;5053417;28;20543;-72
2021/11/21 09:44:04;;;;;;;16.33;11.20;;;5.90;99.90;;;;;;5053469;28;20586;-71
2021/11/21 09:46:31;;;;;;;15.27;11.10;;;5.90;99.90;;;;;;5053147;28;20238;-72
2021/11/21 09:48:59;;;;;;;16.52;10.30;;;6.00;99.90;;;;;;5053159;28;20281;-72
2021/11/21 09:51:26;;;;;;;14.27;9.40;;;6.10;99.90;;;;;;5053062;28;20227;-72
2021/11/21 09:53:53;;;;;;;14.20;9.68;;;6.20;99.90;;;;;;5053405;28;20241;-72
2021/11/21 09:56:20;;;;;;;15.88;9.00;;;6.30;99.90;;;;;;5053311;28;20246;-72
2021/11/21 09:58:47;;;;;;;14.23;9.63;;;6.40;99.90;;;;;;5053030;28;20735;-72
2021/11/21 10:01:39;;;;;;;18.67;11.80;;;6.30;99.90;;;;;;5053301;28;20605;-71
2021/11/21 10:04:09;;;;;;;20.17;12.07;;;6.20;99.90;;;;;;5038672;28;20210;-72
2021/11/21 10:06:44;;;;;;;20.42;11.88;;;6.30;99.90;;;;;;5053154;28;20238;-72
2021/11/21 10:09:12;;;;;;;14.25;9.52;;;6.30;99.90;;;;;;5053541;28;20241;-71
2021/11/21 10:11:57;;;;;;;15.98;9.80;;;6.40;99.90;;;;;;5053377;28;20223;-71
2021/11/21 10:14:24;;;;;;;16.15;9.82;;;6.50;99.90;;;;;;5053275;28;20238;-71
2021/11/21 10:16:51;;;;;;;18.60;12.15;;;6.50;99.90;;;;;;5053126;28;20243;-72
2021/11/21 10:19:19;;;;;;;19.48;12.98;;;6.40;99.90;;;;;;5053186;28;20259;-72
2021/11/21 10:21:52;;;;;;;18.70;13.82;;;6.50;99.90;;;;;;5053087;28;20280;-71
2021/11/21 10:24:24;;;;;;;18.92;13.02;;;6.40;99.90;;;;;;5053222;28;20243;-71
2021/11/21 10:27:03;;;;;;;18.35;13.18;;;6.40;99.90;;;;;;5052965;28;20657;-71
2021/11/21 10:29:32;;;;;;;16.83;11.88;;;6.40;99.90;;;;;;5052943;28;20273;-72
2021/11/21 10:32:02;;;;;;;17.45;12.43;;;6.40;99.90;;;;;;5052654;28;20255;-71
2021/11/21 10:34:30;;;;;;;20.20;13.10;;;6.40;99.90;;;;;;5052743;28;20286;-72
2021/11/21 10:37:08;;;;;;;16.90;11.73;;;6.50;99.90;;;;;;5054285;28;20256;-71
2021/11/21 10:39:35;;;;;;;15.82;11.75;;;6.60;99.90;;;;;;5056582;28;20262;-71
2021/11/21 10:42:02;;;;;;;16.58;11.13;;;6.70;99.90;;;;;;5056722;28;20261;-72
2021/11/21 10:44:29;;;;;;;11.40;8.75;;;6.80;99.90;;;;;;5056406;28;20239;-72
2021/11/21 10:46:58;;;;;;;15.38;9.85;;;6.70;99.90;;;;;;5056449;28;20235;-72
2021/11/21 10:49:33;;;;;;;14.20;8.75;;;6.70;99.90;;;;;;5056558;28;20223;-71
2021/11/21 10:52:22;;;;;;;15.52;10.32;;;6.40;99.90;;;;;;5056232;28;20223;-72
2021/11/21 10:54:51;;;;;;;20.17;12.27;;;6.40;99.90;;;;;;5051549;28;20673;-72
2021/11/21 10:57:21;;;;;;;20.02;14.85;;;6.40;99.90;;;;;;5056322;28;20246;-72
2021/11/21 10:59:51;;;;;;;21.08;15.32;;;6.40;99.90;;;;;;5056580;28;20262;-72
2021/11/21 11:02:24;;;;;;;19.42;15.23;;;6.50;99.90;;;;;;5056530;28;20258;-72
2021/11/21 11:05:08;;;;;;;23.25;16.00;;;6.50;99.90;;;;;;5056270;28;20208;-72
2021/11/21 11:07:37;;;;;;;21.02;14.30;;;6.60;99.90;;;;;;5056003;28;20665;-71
2021/11/21 11:10:08;;;;;;;21.73;13.43;;;6.40;99.90;;;;;;5055655;28;20203;-72
2021/11/21 11:12:36;;;;;;;20.05;13.32;;;6.10;99.90;;;;;;5055909;28;20249;-71
2021/11/21 11:15:04;;;;;;;18.88;12.95;;;6.10;99.90;;;;;;5055609;28;20210;-71
2021/11/21 11:17:31;;;;;;;20.88;13.57;;;6.20;99.90;;;;;;5055496;28;20669;-72
2021/11/21 11:20:00;;;;;;;20.13;14.02;;;6.20;99.90;;;;;;5055785;28;20260;-71
2021/11/21 11:22:29;;;;;;;21.92;13.75;;;6.30;99.90;;;;;;5055697;28;20235;-72
2021/11/21 11:24:59;;;;;;;20.80;13.43;;;6.30;99.90;;;;;;5055910;28;20230;-72
2021/11/21 11:27:35;;;;;;;20.20;13.88;;;6.30;99.90;;;;;;5056138;28;20265;-72
2021/11/21 11:30:03;;;;;;;18.70;12.05;;;6.50;99.90;;;;;;5055802;28;20219;-71
2021/11/21 11:32:36;;;;;;;18.95;12.30;;;6.50;99.90;;;;;;5055994;28;20253;-72
2021/11/21 11:35:05;;;;;;;21.17;13.38;;;6.60;99.90;;;;;;5055775;28;20261;-72
2021/11/21 11:37:56;;;;;;;19.17;12.25;;;6.70;99.90;;;;;;5055864;28;20246;-71
2021/11/21 11:40:44;;;;;;;20.85;12.85;;;6.70;99.90;;;;;;5055625;28;20235;-72
2021/11/21 11:43:40;;;;;;;20.85;13.27;;;6.70;99.90;;;;;;5055467;28;20275;-71
2021/11/21 11:46:28;;;;;;;25.88;13.70;;;6.50;99.90;;;;;;5055198;28;20203;-72
2021/11/21 11:48:57;;;;;;;20.98;12.57;;;6.50;99.90;;;;;;5055013;28;20228;-72
2021/11/21 11:51:53;;;;;;;18.95;12.52;;;6.40;99.90;;;;;;5055631;28;20262;-72
2021/11/21 11:54:31;;;;;;;23.45;14.60;;;6.40;99.90;;;;;;5055488;28;20199;-72
2021/11/21 11:57:01;;;;;;;21.98;14.70;;;6.40;99.90;;;;;;5055563;28;20221;-72
2021/11/21 11:59:33;;;;;;;20.50;13.65;;;6.50;99.90;;;;;;5055216;28;20313;-71
2021/11/21 12:02:02;;;;;;;21.27;13.77;;;6.50;99.90;;;;;;5055118;28;20673;-71
2021/11/21 12:04:50;;;;;;;21.25;14.57;;;6.40;99.90;;;;;;5054882;28;20200;-72
2021/11/21 12:07:40;;;;;;;21.42;14.32;;;6.40;99.90;;;;;;5054887;28;20294;-72
2021/11/21 12:10:18;;;;;;;17.75;11.88;;;6.30;99.90;;;;;;5054650;28;20685;-71
2021/11/21 12:13:07;;;;;;;19.25;12.85;;;6.30;99.90;;;;;;5054742;28;20666;-72
2021/11/21 12:15:54;;;;;;;19.48;11.02;;;6.30;99.90;;;;;;5054322;28;20261;-72
2021/11/21 12:18:21;;;;;;;17.13;12.05;;;6.30;99.90;;;;;;5054320;28;20228;-71
2021/11/21 12:20:55;;;;;;;17.48;12.02;;;6.30;99.90;;;;;;5054681;28;20227;-72
2021/11/21 12:24:00;;;;;;;19.02;12.00;;;6.00;99.90;;;;;;5054556;28;20238;-72
2021/11/21 12:26:43;;;;;;;13.75;9.63;;;6.00;99.90;;;;;;5048136;28;20209;-72
2021/11/21 12:29:25;;;;;;;18.80;12.23;;;6.00;99.90;;;;;;5054593;28;20616;-72
2021/11/21 12:31:54;;;;;;;17.42;12.25;;;6.10;99.90;;;;;;5054568;28;20558;-71
2021/11/21 12:34:39;;;;;;;20.90;14.57;;;6.20;99.90;;;;;;5054602;28;20254;-72
2021/11/21 12:37:34;;;;;;;19.00;13.52;;;6.40;99.90;;;;;;5054415;28;20665;-71
2021/11/21 12:40:27;;;;;;;22.70;14.45;;;6.40;99.90;;;;;;5054837;28;20721;-71
2021/11/21 12:43:07;;;;;;;21.50;15.35;;;6.60;99.90;;;;;;5054632;28;20286;-72
2021/11/21 12:45:37;;;;;;;23.52;14.40;;;6.80;99.90;;;;;;5054425;28;20238;-72
2021/11/21 12:48:06;;;;;;;18.48;12.48;;;6.90;99.90;;;;;;5055176;28;20230;-72
2021/11/21 12:50:35;;;;;;;16.92;13.18;;;6.80;99.90;;;;;;5054209;28;20683;-72